sensor_id;sensor_type;location;lat;lon;timestamp;temperature;humidity
19007;DHT22;9636;47.382;8.480;2022-07-06T00:00:14;18.00;99.90
19007;DHT22;9636;47.382;8.480;2022-07-06T00:02:41;18.10;99.90
19007;DHT22;9636;47.382;8.480;2022-07-06T00:05:08;18.10;99.90
19007;DHT22;9636;47.382;8.480;2022-07-06T00:07:35;18.10;99.90
19007;DHT22;9636;47.382;8.480;2022-07-06T00:10:04;18.10;99.90
19007;DHT22;9636;47.382;8.480;2022-07-06T00:12:31;18.00;99.90
19007;DHT22;9636;47.382;8.480;2022-07-06T00:14:58;18.00;99.90
19007;DHT22;9636;47.382;8.480;2022-07-06T00:17:25;17.90;99.90
19007;DHT22;9636;47.382;8.480;2022-07-06T00:19:51;18.00;99.90
19007;DHT22;9636;47.382;8.480;2022-07-06T00:22:18;18.00;99.90
19007;DHT22;9636;47.382;8.480;2022-07-06T00:24:45;18.00;99.90
19007;DHT22;9636;47.382;8.480;2022-07-06T00:27:13;17.90;99.90
19007;DHT22;9636;47.382;8.480;2022-07-06T00:29:40;17.90;99.90
19007;DHT22;9636;47.382;8.480;2022-07-06T00:32:09;17.50;99.90
19007;DHT22;9636;47.382;8.480;2022-07-06T00:34:37;17.50;99.90
19007;DHT22;9636;47.382;8.480;2022-07-06T00:37:05;17.70;99.90
19007;DHT22;9636;47.382;8.480;2022-07-06T00:39:32;17.70;99.90
19007;DHT22;9636;47.382;8.480;2022-07-06T00:41:59;17.80;99.90
19007;DHT22;9636;47.382;8.480;2022-07-06T00:44:27;17.80;99.90
19007;DHT22;9636;47.382;8.480;2022-07-06T00:46:55;17.90;99.90
19007;DHT22;9636;47.382;8.480;2022-07-06T00:49:21;17.90;99.90
19007;DHT22;9636;47.382;8.480;2022-07-06T00:52:06;18.00;99.90
19007;DHT22;9636;47.382;8.480;2022-07-06T00:54:34;18.00;99.90
19007;DHT22;9636;47.382;8.480;2022-07-06T00:57:03;17.90;99.90
19007;DHT22;9636;47.382;8.480;2022-07-06T00:59:31;18.00;99.90
19007;DHT22;9636;47.382;8.480;2022-07-06T01:01:58;18.00;99.90
19007;DHT22;9636;47.382;8.480;2022-07-06T01:04:25;18.00;99.90
19007;DHT22;9636;47.382;8.480;2022-07-06T01:06:52;17.80;99.90
19007;DHT22;9636;47.382;8.480;2022-07-06T01:09:19;17.60;99.90
19007;DHT22;9636;47.382;8.480;2022-07-06T01:11:46;17.50;99.90
19007;DHT22;9636;47.382;8.480;2022-07-06T01:14:14;17.60;99.90
19007;DHT22;9636;47.382;8.480;2022-07-06T01:16:43;17.70;99.90
19007;DHT22;9636;47.382;8.480;2022-07-06T01:19:10;17.80;99.90
19007;DHT22;9636;47.382;8.480;2022-07-06T01:21:39;17.90;99.90
19007;DHT22;9636;47.382;8.480;2022-07-06T01:24:06;17.90;99.90
19007;DHT22;9636;47.382;8.480;2022-07-06T01:26:33;17.80;99.90
19007;DHT22;9636;47.382;8.480;2022-07-06T01:29:01;17.70;99.90
19007;DHT22;9636;47.382;8.480;2022-07-06T01:31:27;17.40;99.90
19007;DHT22;9636;47.382;8.480;2022-07-06T01:33:55;17.40;99.90
19007;DHT22;9636;47.382;8.480;2022-07-06T01:36:23;17.20;99.90
19007;DHT22;9636;47.382;8.480;2022-07-06T01:38:53;17.10;99.90
19007;DHT22;9636;47.382;8.480;2022-07-06T01:41:20;16.80;99.90
19007;DHT22;9636;47.382;8.480;2022-07-06T01:43:48;16.90;99.90
19007;DHT22;9636;47.382;8.480;2022-07-06T01:46:15;16.70;99.90
19007;DHT22;9636;47.382;8.480;2022-07-06T01:48:42;16.80;99.90
19007;DHT22;9636;47.382;8.480;2022-07-06T01:51:09;16.70;99.90
19007;DHT22;9636;47.382;8.480;2022-07-06T01:53:37;16.80;99.90
19007;DHT22;9636;47.382;8.480;2022-07-06T01:56:06;16.70;99.90
19007;DHT22;9636;47.382;8.480;2022-07-06T01:58:33;16.60;99.90
19007;DHT22;9636;47.382;8.480;2022-07-06T02:01:01;16.60;99.90
19007;DHT22;9636;47.382;8.480;2022-07-06T02:03:32;16.40;99.90
19007;DHT22;9636;47.382;8.480;2022-07-06T02:05:59;16.60;99.90
19007;DHT22;9636;47.382;8.480;2022-07-06T02:08:26;16.50;99.90
19007;DHT22;9636;47.382;8.480;2022-07-06T02:10:53;16.60;99.90
19007;DHT22;9636;47.382;8.480;2022-07-06T02:13:21;16.30;99.90
19007;DHT22;9636;47.382;8.480;2022-07-06T02:15:48;16.30;99.90
19007;DHT22;9636;47.382;8.480;2022-07-06T02:18:15;16.40;99.90
19007;DHT22;9636;47.382;8.480;2022-07-06T02:20:42;16.20;99.90
19007;DHT22;9636;47.382;8.480;2022-07-06T02:23:09;16.20;99.90
19007;DHT22;9636;47.382;8.480;2022-07-06T02:25:36;16.20;99.90
19007;DHT22;9636;47.382;8.480;2022-07-06T02:28:03;16.40;99.90
19007;DHT22;9636;47.382;8.480;2022-07-06T02:30:32;16.50;99.90
19007;DHT22;9636;47.382;8.480;2022-07-06T02:32:59;16.60;99.90
19007;DHT22;9636;47.382;8.480;2022-07-06T02:35:26;16.50;99.90
19007;DHT22;9636;47.382;8.480;2022-07-06T02:37:52;16.50;99.90
19007;DHT22;9636;47.382;8.480;2022-07-06T02:40:19;16.50;99.90
19007;DHT22;9636;47.382;8.480;2022-07-06T02:42:46;16.50;99.90
19007;DHT22;9636;47.382;8.480;2022-07-06T02:45:13;16.30;99.90
19007;DHT22;9636;47.382;8.480;2022-07-06T02:47:41;16.10;99.90
19007;DHT22;9636;47.382;8.480;2022-07-06T02:50:08;16.10;99.90
19007;DHT22;9636;47.382;8.480;2022-07-06T02:52:35;15.90;99.90
19007;DHT22;9636;47.382;8.480;2022-07-06T02:55:02;15.90;99.90
19007;DHT22;9636;47.382;8.480;2022-07-06T02:57:29;16.00;99.90
19007;DHT22;9636;47.382;8.480;2022-07-06T02:59:56;16.00;99.90
19007;DHT22;9636;47.382;8.480;2022-07-06T03:02:23;15.90;99.90
19007;DHT22;9636;47.382;8.480;2022-07-06T03:04:51;15.80;99.90
19007;DHT22;9636;47.382;8.480;2022-07-06T03:07:18;15.80;99.90
19007;DHT22;9636;47.382;8.480;2022-07-06T03:09:45;15.80;99.90
19007;DHT22;9636;47.382;8.480;2022-07-06T03:12:12;15.80;99.90
19007;DHT22;9636;47.382;8.480;2022-07-06T03:14:38;15.60;99.90
19007;DHT22;9636;47.382;8.480;2022-07-06T03:17:05;15.80;99.90
19007;DHT22;9636;47.382;8.480;2022-07-06T03:19:32;15.70;99.90
19007;DHT22;9636;47.382;8.480;2022-07-06T03:22:01;15.50;99.90
19007;DHT22;9636;47.382;8.480;2022-07-06T03:24:28;15.60;99.90
19007;DHT22;9636;47.382;8.480;2022-07-06T03:26:55;15.70;99.90
19007;DHT22;9636;47.382;8.480;2022-07-06T03:29:21;15.80;99.90
19007;DHT22;9636;47.382;8.480;2022-07-06T03:31:48;15.90;99.90
19007;DHT22;9636;47.382;8.480;2022-07-06T03:34:15;16.00;99.90
19007;DHT22;9636;47.382;8.480;2022-07-06T03:36:42;15.90;99.90
19007;DHT22;9636;47.382;8.480;2022-07-06T03:39:10;15.70;99.90
19007;DHT22;9636;47.382;8.480;2022-07-06T03:41:36;15.70;99.90
19007;DHT22;9636;47.382;8.480;2022-07-06T03:44:03;15.70;99.90
19007;DHT22;9636;47.382;8.480;2022-07-06T03:46:30;15.60;99.90
19007;DHT22;9636;47.382;8.480;2022-07-06T03:48:57;15.60;99.90
19007;DHT22;9636;47.382;8.480;2022-07-06T03:51:24;15.50;99.90
19007;DHT22;9636;47.382;8.480;2022-07-06T03:53:51;15.50;99.90
19007;DHT22;9636;47.382;8.480;2022-07-06T03:56:19;15.70;99.90
19007;DHT22;9636;47.382;8.480;2022-07-06T03:58:55;15.80;99.90
19007;DHT22;9636;47.382;8.480;2022-07-06T04:01:22;15.80;99.90
19007;DHT22;9636;47.382;8.480;2022-07-06T04:03:49;15.60;99.90
19007;DHT22;9636;47.382;8.480;2022-07-06T04:06:16;15.70;99.90
19007;DHT22;9636;47.382;8.480;2022-07-06T04:08:43;15.50;99.90
19007;DHT22;9636;47.382;8.480;2022-07-06T04:11:10;15.40;99.90
19007;DHT22;9636;47.382;8.480;2022-07-06T04:13:38;15.70;99.90
19007;DHT22;9636;47.382;8.480;2022-07-06T04:16:05;15.80;99.90
19007;DHT22;9636;47.382;8.480;2022-07-06T04:18:32;16.00;99.90
19007;DHT22;9636;47.382;8.480;2022-07-06T04:20:59;16.00;99.90
19007;DHT22;9636;47.382;8.480;2022-07-06T04:23:25;16.10;99.90
19007;DHT22;9636;47.382;8.480;2022-07-06T04:25:52;16.00;99.90
19007;DHT22;9636;47.382;8.480;2022-07-06T04:28:19;16.20;99.90
19007;DHT22;9636;47.382;8.480;2022-07-06T04:30:47;16.30;99.90
19007;DHT22;9636;47.382;8.480;2022-07-06T04:33:14;16.10;99.90
19007;DHT22;9636;47.382;8.480;2022-07-06T04:35:41;16.20;99.90
19007;DHT22;9636;47.382;8.480;2022-07-06T04:38:08;16.30;99.90
19007;DHT22;9636;47.382;8.480;2022-07-06T04:40:34;16.40;99.90
19007;DHT22;9636;47.382;8.480;2022-07-06T04:43:01;16.60;99.90
19007;DHT22;9636;47.382;8.480;2022-07-06T04:45:28;16.80;99.90
19007;DHT22;9636;47.382;8.480;2022-07-06T04:47:56;17.00;99.90
19007;DHT22;9636;47.382;8.480;2022-07-06T04:50:23;17.10;99.90
19007;DHT22;9636;47.382;8.480;2022-07-06T04:52:49;17.20;99.90
19007;DHT22;9636;47.382;8.480;2022-07-06T04:55:16;17.30;99.90
19007;DHT22;9636;47.382;8.480;2022-07-06T04:57:43;17.50;99.90
19007;DHT22;9636;47.382;8.480;2022-07-06T05:00:11;17.60;99.90
19007;DHT22;9636;47.382;8.480;2022-07-06T05:02:38;17.70;99.90
19007;DHT22;9636;47.382;8.480;2022-07-06T05:05:06;17.80;99.90
19007;DHT22;9636;47.382;8.480;2022-07-06T05:07:35;17.90;99.90
19007;DHT22;9636;47.382;8.480;2022-07-06T05:10:06;17.80;99.90
19007;DHT22;9636;47.382;8.480;2022-07-06T05:12:33;17.90;99.90
19007;DHT22;9636;47.382;8.480;2022-07-06T05:15:00;18.00;99.90
19007;DHT22;9636;47.382;8.480;2022-07-06T05:17:27;18.20;99.90
19007;DHT22;9636;47.382;8.480;2022-07-06T05:19:53;18.30;99.90
19007;DHT22;9636;47.382;8.480;2022-07-06T05:22:21;18.50;99.90
19007;DHT22;9636;47.382;8.480;2022-07-06T05:24:49;18.60;99.90
19007;DHT22;9636;47.382;8.480;2022-07-06T05:27:16;18.80;99.90
19007;DHT22;9636;47.382;8.480;2022-07-06T05:29:43;18.90;99.90
19007;DHT22;9636;47.382;8.480;2022-07-06T05:32:10;19.20;99.90
19007;DHT22;9636;47.382;8.480;2022-07-06T05:34:36;19.40;99.90
19007;DHT22;9636;47.382;8.480;2022-07-06T05:37:03;19.60;99.90
19007;DHT22;9636;47.382;8.480;2022-07-06T05:39:31;19.70;99.90
19007;DHT22;9636;47.382;8.480;2022-07-06T05:41:58;19.90;99.90
19007;DHT22;9636;47.382;8.480;2022-07-06T05:44:25;19.90;99.90
19007;DHT22;9636;47.382;8.480;2022-07-06T05:46:52;19.90;99.90
19007;DHT22;9636;47.382;8.480;2022-07-06T05:49:38;19.90;99.90
19007;DHT22;9636;47.382;8.480;2022-07-06T05:52:23;19.90;99.90
19007;DHT22;9636;47.382;8.480;2022-07-06T05:54:51;20.10;99.90
19007;DHT22;9636;47.382;8.480;2022-07-06T05:57:18;20.40;99.90
19007;DHT22;9636;47.382;8.480;2022-07-06T05:59:44;20.50;99.90
19007;DHT22;9636;47.382;8.480;2022-07-06T06:02:11;20.60;99.90
19007;DHT22;9636;47.382;8.480;2022-07-06T06:04:38;20.70;99.90
19007;DHT22;9636;47.382;8.480;2022-07-06T06:07:05;20.60;99.90
19007;DHT22;9636;47.382;8.480;2022-07-06T06:09:31;20.70;99.90
19007;DHT22;9636;47.382;8.480;2022-07-06T06:11:59;20.90;99.90
19007;DHT22;9636;47.382;8.480;2022-07-06T06:14:26;21.00;99.90
19007;DHT22;9636;47.382;8.480;2022-07-06T06:16:53;20.90;99.90
19007;DHT22;9636;47.382;8.480;2022-07-06T06:19:20;21.00;99.90
19007;DHT22;9636;47.382;8.480;2022-07-06T06:21:47;21.00;99.90
19007;DHT22;9636;47.382;8.480;2022-07-06T06:24:13;21.20;99.90
19007;DHT22;9636;47.382;8.480;2022-07-06T06:26:40;21.00;99.90
19007;DHT22;9636;47.382;8.480;2022-07-06T06:29:08;21.10;99.90
19007;DHT22;9636;47.382;8.480;2022-07-06T06:31:35;21.40;99.90
19007;DHT22;9636;47.382;8.480;2022-07-06T06:34:02;21.50;99.90
19007;DHT22;9636;47.382;8.480;2022-07-06T06:36:29;21.50;99.90
19007;DHT22;9636;47.382;8.480;2022-07-06T06:38:56;21.70;99.90
19007;DHT22;9636;47.382;8.480;2022-07-06T06:41:22;22.00;99.90
19007;DHT22;9636;47.382;8.480;2022-07-06T06:43:49;21.90;99.90
19007;DHT22;9636;47.382;8.480;2022-07-06T06:46:17;22.00;99.90
19007;DHT22;9636;47.382;8.480;2022-07-06T06:48:44;22.10;99.90
19007;DHT22;9636;47.382;8.480;2022-07-06T06:51:11;22.10;99.90
19007;DHT22;9636;47.382;8.480;2022-07-06T06:53:37;22.00;99.90
19007;DHT22;9636;47.382;8.480;2022-07-06T06:56:04;21.80;99.90
19007;DHT22;9636;47.382;8.480;2022-07-06T06:58:31;21.80;99.90
19007;DHT22;9636;47.382;8.480;2022-07-06T07:00:58;22.10;99.90
19007;DHT22;9636;47.382;8.480;2022-07-06T07:03:26;22.20;99.90
19007;DHT22;9636;47.382;8.480;2022-07-06T07:05:53;22.10;99.90
19007;DHT22;9636;47.382;8.480;2022-07-06T07:08:20;22.30;99.90
19007;DHT22;9636;47.382;8.480;2022-07-06T07:10:46;22.30;99.90
19007;DHT22;9636;47.382;8.480;2022-07-06T07:13:13;22.60;99.90
19007;DHT22;9636;47.382;8.480;2022-07-06T07:15:40;22.60;99.90
19007;DHT22;9636;47.382;8.480;2022-07-06T07:18:07;23.00;99.90
19007;DHT22;9636;47.382;8.480;2022-07-06T07:20:35;22.90;99.90
19007;DHT22;9636;47.382;8.480;2022-07-06T07:23:02;23.20;99.90
19007;DHT22;9636;47.382;8.480;2022-07-06T07:25:29;23.00;99.90
19007;DHT22;9636;47.382;8.480;2022-07-06T07:27:55;22.80;99.90
19007;DHT22;9636;47.382;8.480;2022-07-06T07:30:22;22.80;99.90
19007;DHT22;9636;47.382;8.480;2022-07-06T07:32:49;22.90;99.90
19007;DHT22;9636;47.382;8.480;2022-07-06T07:35:16;23.40;99.90
19007;DHT22;9636;47.382;8.480;2022-07-06T07:37:44;23.80;99.90
19007;DHT22;9636;47.382;8.480;2022-07-06T07:40:11;23.60;99.90
19007;DHT22;9636;47.382;8.480;2022-07-06T07:42:38;23.60;99.90
19007;DHT22;9636;47.382;8.480;2022-07-06T07:45:06;23.80;99.90
19007;DHT22;9636;47.382;8.480;2022-07-06T07:47:33;24.10;99.90
19007;DHT22;9636;47.382;8.480;2022-07-06T07:50:00;24.60;99.90
19007;DHT22;9636;47.382;8.480;2022-07-06T07:52:27;24.80;99.90
19007;DHT22;9636;47.382;8.480;2022-07-06T07:54:55;24.60;99.90
19007;DHT22;9636;47.382;8.480;2022-07-06T07:57:22;24.80;99.90
19007;DHT22;9636;47.382;8.480;2022-07-06T07:59:48;25.00;99.90
19007;DHT22;9636;47.382;8.480;2022-07-06T08:02:15;25.10;99.90
19007;DHT22;9636;47.382;8.480;2022-07-06T08:04:42;24.50;99.90
19007;DHT22;9636;47.382;8.480;2022-07-06T08:07:09;23.40;99.90
19007;DHT22;9636;47.382;8.480;2022-07-06T08:09:35;23.10;99.90
19007;DHT22;9636;47.382;8.480;2022-07-06T08:12:04;23.40;99.90
19007;DHT22;9636;47.382;8.480;2022-07-06T08:14:31;23.40;99.90
19007;DHT22;9636;47.382;8.480;2022-07-06T08:16:58;23.60;99.90
19007;DHT22;9636;47.382;8.480;2022-07-06T08:19:24;23.60;99.90
19007;DHT22;9636;47.382;8.480;2022-07-06T08:21:51;23.40;99.90
19007;DHT22;9636;47.382;8.480;2022-07-06T08:24:19;23.40;99.90
19007;DHT22;9636;47.382;8.480;2022-07-06T08:26:46;23.60;99.90
19007;DHT22;9636;47.382;8.480;2022-07-06T08:29:14;23.90;99.90
19007;DHT22;9636;47.382;8.480;2022-07-06T08:31:41;23.70;99.90
19007;DHT22;9636;47.382;8.480;2022-07-06T08:34:08;23.90;99.90
19007;DHT22;9636;47.382;8.480;2022-07-06T08:36:35;24.00;99.90
19007;DHT22;9636;47.382;8.480;2022-07-06T08:39:01;24.10;99.90
19007;DHT22;9636;47.382;8.480;2022-07-06T08:41:29;24.00;99.90
19007;DHT22;9636;47.382;8.480;2022-07-06T08:43:56;23.40;99.90
19007;DHT22;9636;47.382;8.480;2022-07-06T08:46:27;23.60;99.90
19007;DHT22;9636;47.382;8.480;2022-07-06T08:48:56;23.90;99.90
19007;DHT22;9636;47.382;8.480;2022-07-06T08:51:24;23.70;99.90
19007;DHT22;9636;47.382;8.480;2022-07-06T08:53:51;23.40;99.90
19007;DHT22;9636;47.382;8.480;2022-07-06T08:56:19;23.30;99.90
19007;DHT22;9636;47.382;8.480;2022-07-06T08:58:46;23.20;99.90
19007;DHT22;9636;47.382;8.480;2022-07-06T09:01:13;23.40;99.90
19007;DHT22;9636;47.382;8.480;2022-07-06T09:03:41;23.80;99.90
19007;DHT22;9636;47.382;8.480;2022-07-06T09:06:08;24.10;99.90
19007;DHT22;9636;47.382;8.480;2022-07-06T09:08:36;24.70;99.90
19007;DHT22;9636;47.382;8.480;2022-07-06T09:11:03;25.00;99.90
19007;DHT22;9636;47.382;8.480;2022-07-06T09:13:29;24.50;99.90
19007;DHT22;9636;47.382;8.480;2022-07-06T09:16:09;23.90;99.90
19007;DHT22;9636;47.382;8.480;2022-07-06T09:18:36;24.60;99.90
19007;DHT22;9636;47.382;8.480;2022-07-06T09:21:04;25.10;99.90
19007;DHT22;9636;47.382;8.480;2022-07-06T09:23:32;25.20;99.90
19007;DHT22;9636;47.382;8.480;2022-07-06T09:26:01;25.10;99.90
19007;DHT22;9636;47.382;8.480;2022-07-06T09:28:40;25.70;99.90
19007;DHT22;9636;47.382;8.480;2022-07-06T09:31:07;25.80;99.90
19007;DHT22;9636;47.382;8.480;2022-07-06T09:33:34;26.10;99.90
19007;DHT22;9636;47.382;8.480;2022-07-06T09:36:01;26.00;99.90
19007;DHT22;9636;47.382;8.480;2022-07-06T09:38:29;26.00;99.90
19007;DHT22;9636;47.382;8.480;2022-07-06T09:40:56;25.60;99.90
19007;DHT22;9636;47.382;8.480;2022-07-06T09:43:24;25.10;99.90
19007;DHT22;9636;47.382;8.480;2022-07-06T09:45:52;25.10;99.90
19007;DHT22;9636;47.382;8.480;2022-07-06T09:48:20;25.00;99.90
19007;DHT22;9636;47.382;8.480;2022-07-06T09:50:49;25.30;99.90
19007;DHT22;9636;47.382;8.480;2022-07-06T09:53:18;25.50;99.90
19007;DHT22;9636;47.382;8.480;2022-07-06T09:55:48;25.70;99.90
19007;DHT22;9636;47.382;8.480;2022-07-06T09:58:16;25.80;99.90
19007;DHT22;9636;47.382;8.480;2022-07-06T10:00:43;26.10;99.90
19007;DHT22;9636;47.382;8.480;2022-07-06T10:03:11;25.60;99.90
19007;DHT22;9636;47.382;8.480;2022-07-06T10:05:39;25.50;99.90
19007;DHT22;9636;47.382;8.480;2022-07-06T10:08:07;25.60;99.90
19007;DHT22;9636;47.382;8.480;2022-07-06T10:10:35;25.60;99.90
19007;DHT22;9636;47.382;8.480;2022-07-06T10:13:04;25.90;99.90
19007;DHT22;9636;47.382;8.480;2022-07-06T10:15:33;26.20;99.90
19007;DHT22;9636;47.382;8.480;2022-07-06T10:18:02;26.30;99.90
19007;DHT22;9636;47.382;8.480;2022-07-06T10:20:32;25.60;99.90
19007;DHT22;9636;47.382;8.480;2022-07-06T10:23:03;25.50;99.90
19007;DHT22;9636;47.382;8.480;2022-07-06T10:25:32;25.50;99.90
19007;DHT22;9636;47.382;8.480;2022-07-06T10:27:59;25.20;99.90
19007;DHT22;9636;47.382;8.480;2022-07-06T10:30:28;25.20;99.90
19007;DHT22;9636;47.382;8.480;2022-07-06T10:32:56;25.10;99.90
19007;DHT22;9636;47.382;8.480;2022-07-06T10:35:24;25.00;99.90
19007;DHT22;9636;47.382;8.480;2022-07-06T10:38:04;25.10;99.90
19007;DHT22;9636;47.382;8.480;2022-07-06T10:40:35;25.10;99.90
19007;DHT22;9636;47.382;8.480;2022-07-06T10:43:19;25.10;99.90
19007;DHT22;9636;47.382;8.480;2022-07-06T10:45:51;24.70;99.90
19007;DHT22;9636;47.382;8.480;2022-07-06T10:48:20;24.60;99.90
19007;DHT22;9636;47.382;8.480;2022-07-06T10:50:49;24.40;99.90
19007;DHT22;9636;47.382;8.480;2022-07-06T10:53:17;24.50;99.90
19007;DHT22;9636;47.382;8.480;2022-07-06T10:55:45;24.30;99.90
19007;DHT22;9636;47.382;8.480;2022-07-06T10:58:13;24.40;99.90
19007;DHT22;9636;47.382;8.480;2022-07-06T11:00:48;24.60;99.90
19007;DHT22;9636;47.382;8.480;2022-07-06T11:03:40;24.50;99.90
19007;DHT22;9636;47.382;8.480;2022-07-06T11:06:10;24.40;99.90
19007;DHT22;9636;47.382;8.480;2022-07-06T11:08:45;24.60;99.90
19007;DHT22;9636;47.382;8.480;2022-07-06T11:11:13;24.80;99.90
19007;DHT22;9636;47.382;8.480;2022-07-06T11:13:53;24.70;99.90
19007;DHT22;9636;47.382;8.480;2022-07-06T11:16:21;24.80;99.90
19007;DHT22;9636;47.382;8.480;2022-07-06T11:18:59;24.80;99.90
19007;DHT22;9636;47.382;8.480;2022-07-06T11:21:33;24.80;99.90
19007;DHT22;9636;47.382;8.480;2022-07-06T11:24:01;25.00;99.90
19007;DHT22;9636;47.382;8.480;2022-07-06T11:26:28;25.10;99.90
19007;DHT22;9636;47.382;8.480;2022-07-06T11:28:58;25.10;99.90
19007;DHT22;9636;47.382;8.480;2022-07-06T11:31:26;25.00;99.90
19007;DHT22;9636;47.382;8.480;2022-07-06T11:33:54;25.00;99.90
19007;DHT22;9636;47.382;8.480;2022-07-06T11:36:22;24.90;99.90
19007;DHT22;9636;47.382;8.480;2022-07-06T11:38:49;25.00;99.90
19007;DHT22;9636;47.382;8.480;2022-07-06T11:41:17;24.90;99.90
19007;DHT22;9636;47.382;8.480;2022-07-06T11:43:45;24.80;99.90
19007;DHT22;9636;47.382;8.480;2022-07-06T11:46:26;24.80;99.90
19007;DHT22;9636;47.382;8.480;2022-07-06T11:48:56;24.80;99.90
19007;DHT22;9636;47.382;8.480;2022-07-06T11:51:25;24.80;99.90
19007;DHT22;9636;47.382;8.480;2022-07-06T11:53:53;24.80;99.90
19007;DHT22;9636;47.382;8.480;2022-07-06T11:56:21;24.80;99.90
19007;DHT22;9636;47.382;8.480;2022-07-06T11:58:51;24.70;99.90
19007;DHT22;9636;47.382;8.480;2022-07-06T12:01:18;24.80;99.90
19007;DHT22;9636;47.382;8.480;2022-07-06T12:03:46;24.80;99.90
19007;DHT22;9636;47.382;8.480;2022-07-06T12:06:18;24.90;99.90
19007;DHT22;9636;47.382;8.480;2022-07-06T12:08:47;25.00;99.90
19007;DHT22;9636;47.382;8.480;2022-07-06T12:11:19;24.90;99.90
19007;DHT22;9636;47.382;8.480;2022-07-06T12:13:47;24.80;99.90
19007;DHT22;9636;47.382;8.480;2022-07-06T12:16:14;24.80;99.90
19007;DHT22;9636;47.382;8.480;2022-07-06T12:18:43;24.90;99.90
19007;DHT22;9636;47.382;8.480;2022-07-06T12:21:12;24.80;99.90
19007;DHT22;9636;47.382;8.480;2022-07-06T12:23:42;24.80;99.90
19007;DHT22;9636;47.382;8.480;2022-07-06T12:26:10;24.80;99.90
19007;DHT22;9636;47.382;8.480;2022-07-06T12:28:37;24.70;99.90
19007;DHT22;9636;47.382;8.480;2022-07-06T12:31:04;24.80;99.90
19007;DHT22;9636;47.382;8.480;2022-07-06T12:33:31;24.90;99.90
19007;DHT22;9636;47.382;8.480;2022-07-06T12:36:09;24.80;99.90
19007;DHT22;9636;47.382;8.480;2022-07-06T12:38:45;24.80;99.90
19007;DHT22;9636;47.382;8.480;2022-07-06T12:41:28;24.90;99.90
19007;DHT22;9636;47.382;8.480;2022-07-06T12:44:06;24.90;99.90
19007;DHT22;9636;47.382;8.480;2022-07-06T12:46:35;24.70;99.90
19007;DHT22;9636;47.382;8.480;2022-07-06T12:49:11;24.60;99.90
19007;DHT22;9636;47.382;8.480;2022-07-06T12:52:09;24.50;99.90
19007;DHT22;9636;47.382;8.480;2022-07-06T12:54:42;24.50;99.90
19007;DHT22;9636;47.382;8.480;2022-07-06T12:57:10;24.50;99.90
19007;DHT22;9636;47.382;8.480;2022-07-06T12:59:41;24.60;99.90
19007;DHT22;9636;47.382;8.480;2022-07-06T13:02:16;24.70;99.90
19007;DHT22;9636;47.382;8.480;2022-07-06T13:04:43;24.80;99.90
19007;DHT22;9636;47.382;8.480;2022-07-06T13:07:18;24.80;99.90
19007;DHT22;9636;47.382;8.480;2022-07-06T13:09:47;24.80;99.90
19007;DHT22;9636;47.382;8.480;2022-07-06T13:12:13;24.80;99.90
19007;DHT22;9636;47.382;8.480;2022-07-06T13:14:40;24.80;99.90
19007;DHT22;9636;47.382;8.480;2022-07-06T13:17:07;24.80;99.90
19007;DHT22;9636;47.382;8.480;2022-07-06T13:19:34;24.90;99.90
19007;DHT22;9636;47.382;8.480;2022-07-06T13:22:01;24.80;99.90
19007;DHT22;9636;47.382;8.480;2022-07-06T13:24:27;24.90;99.90
19007;DHT22;9636;47.382;8.480;2022-07-06T13:26:56;24.90;99.90
19007;DHT22;9636;47.382;8.480;2022-07-06T13:29:23;24.80;99.90
19007;DHT22;9636;47.382;8.480;2022-07-06T13:31:50;24.80;99.90
19007;DHT22;9636;47.382;8.480;2022-07-06T13:34:17;24.80;99.90
19007;DHT22;9636;47.382;8.480;2022-07-06T13:36:44;24.90;99.90
19007;DHT22;9636;47.382;8.480;2022-07-06T13:39:11;24.80;99.90
19007;DHT22;9636;47.382;8.480;2022-07-06T13:41:38;24.70;99.90
19007;DHT22;9636;47.382;8.480;2022-07-06T13:44:06;24.70;99.90
19007;DHT22;9636;47.382;8.480;2022-07-06T13:46:33;24.80;99.90
19007;DHT22;9636;47.382;8.480;2022-07-06T13:49:02;24.80;99.90
19007;DHT22;9636;47.382;8.480;2022-07-06T13:51:30;25.00;99.90
19007;DHT22;9636;47.382;8.480;2022-07-06T13:53:58;24.90;99.90
19007;DHT22;9636;47.382;8.480;2022-07-06T13:56:25;24.80;99.90
19007;DHT22;9636;47.382;8.480;2022-07-06T13:58:52;24.90;99.90
19007;DHT22;9636;47.382;8.480;2022-07-06T14:01:21;24.90;99.90
19007;DHT22;9636;47.382;8.480;2022-07-06T14:03:48;24.90;99.90
19007;DHT22;9636;47.382;8.480;2022-07-06T14:06:15;24.90;99.90
19007;DHT22;9636;47.382;8.480;2022-07-06T14:08:42;24.80;99.90
19007;DHT22;9636;47.382;8.480;2022-07-06T14:11:10;24.70;99.90
19007;DHT22;9636;47.382;8.480;2022-07-06T14:13:37;24.80;99.90
19007;DHT22;9636;47.382;8.480;2022-07-06T14:16:05;24.90;99.90
19007;DHT22;9636;47.382;8.480;2022-07-06T14:18:33;24.90;99.90
19007;DHT22;9636;47.382;8.480;2022-07-06T14:21:00;24.80;99.90
19007;DHT22;9636;47.382;8.480;2022-07-06T14:23:27;24.70;99.90
19007;DHT22;9636;47.382;8.480;2022-07-06T14:25:55;24.60;99.90
19007;DHT22;9636;47.382;8.480;2022-07-06T14:28:21;24.80;99.90
19007;DHT22;9636;47.382;8.480;2022-07-06T14:30:48;24.80;99.90
19007;DHT22;9636;47.382;8.480;2022-07-06T14:33:15;24.80;99.90
19007;DHT22;9636;47.382;8.480;2022-07-06T14:35:46;24.70;99.90
19007;DHT22;9636;47.382;8.480;2022-07-06T14:38:14;24.70;99.90
19007;DHT22;9636;47.382;8.480;2022-07-06T14:40:42;24.70;99.90
19007;DHT22;9636;47.382;8.480;2022-07-06T14:43:09;24.70;99.90
19007;DHT22;9636;47.382;8.480;2022-07-06T14:45:36;24.80;99.90
19007;DHT22;9636;47.382;8.480;2022-07-06T14:48:03;24.80;99.90
19007;DHT22;9636;47.382;8.480;2022-07-06T14:50:31;24.80;99.90
19007;DHT22;9636;47.382;8.480;2022-07-06T14:52:59;24.80;99.90
19007;DHT22;9636;47.382;8.480;2022-07-06T14:55:25;24.70;99.90
19007;DHT22;9636;47.382;8.480;2022-07-06T14:57:53;24.90;99.90
19007;DHT22;9636;47.382;8.480;2022-07-06T15:00:20;24.90;99.90
19007;DHT22;9636;47.382;8.480;2022-07-06T15:02:47;24.80;99.90
19007;DHT22;9636;47.382;8.480;2022-07-06T15:05:14;24.90;99.90
19007;DHT22;9636;47.382;8.480;2022-07-06T15:07:41;24.80;99.90
19007;DHT22;9636;47.382;8.480;2022-07-06T15:10:10;24.80;99.90
19007;DHT22;9636;47.382;8.480;2022-07-06T15:12:37;24.80;99.90
19007;DHT22;9636;47.382;8.480;2022-07-06T15:15:04;24.70;99.90
19007;DHT22;9636;47.382;8.480;2022-07-06T15:17:31;24.70;99.90
19007;DHT22;9636;47.382;8.480;2022-07-06T15:19:59;24.70;99.90
19007;DHT22;9636;47.382;8.480;2022-07-06T15:22:26;24.80;99.90
19007;DHT22;9636;47.382;8.480;2022-07-06T15:24:53;24.80;99.70
19007;DHT22;9636;47.382;8.480;2022-07-06T15:27:21;24.70;99.20
19007;DHT22;9636;47.382;8.480;2022-07-06T15:29:47;24.70;99.90
19007;DHT22;9636;47.382;8.480;2022-07-06T15:32:14;24.60;99.90
19007;DHT22;9636;47.382;8.480;2022-07-06T15:34:41;24.70;99.90
19007;DHT22;9636;47.382;8.480;2022-07-06T15:37:08;24.70;99.90
19007;DHT22;9636;47.382;8.480;2022-07-06T15:39:34;24.70;99.90
19007;DHT22;9636;47.382;8.480;2022-07-06T15:42:01;24.60;99.20
19007;DHT22;9636;47.382;8.480;2022-07-06T15:44:30;24.60;99.20
19007;DHT22;9636;47.382;8.480;2022-07-06T15:46:56;24.70;98.00
19007;DHT22;9636;47.382;8.480;2022-07-06T15:49:23;24.60;99.00